sensor_id;sensor_type;location;lat;lon;timestamp;pressure;altitude;pressure_sealevel;temperature
41940;BMP180;23057;48.554;14.454;2023-06-10T00:02:13;93508.00;;;21.50
41940;BMP180;23057;48.554;14.454;2023-06-10T00:04:44;93508.00;;;21.40
41940;BMP180;23057;48.554;14.454;2023-06-10T00:07:15;93510.00;;;21.40
41940;BMP180;23057;48.554;14.454;2023-06-10T00:09:45;93499.00;;;21.40
41940;BMP180;23057;48.554;14.454;2023-06-10T00:12:16;93510.00;;;21.40
41940;BMP180;23057;48.554;14.454;2023-06-10T00:14:48;93511.00;;;21.40
41940;BMP180;23057;48.554;14.454;2023-06-10T00:17:21;93517.00;;;21.40
41940;BMP180;23057;48.554;14.454;2023-06-10T00:19:54;93512.00;;;21.40
41940;BMP180;23057;48.554;14.454;2023-06-10T00:22:25;93510.00;;;21.40
41940;BMP180;23057;48.554;14.454;2023-06-10T00:24:59;93505.00;;;21.40
41940;BMP180;23057;48.554;14.454;2023-06-10T00:27:30;93518.00;;;21.30
41940;BMP180;23057;48.554;14.454;2023-06-10T00:30:05;93519.00;;;21.40
41940;BMP180;23057;48.554;14.454;2023-06-10T00:32:37;93515.00;;;21.40
41940;BMP180;23057;48.554;14.454;2023-06-10T00:35:08;93524.00;;;21.30
41940;BMP180;23057;48.554;14.454;2023-06-10T00:37:39;93522.00;;;21.30
41940;BMP180;23057;48.554;14.454;2023-06-10T00:40:10;93528.00;;;21.30
41940;BMP180;23057;48.554;14.454;2023-06-10T00:42:41;93530.00;;;21.30
41940;BMP180;23057;48.554;14.454;2023-06-10T00:45:12;93518.00;;;21.30
41940;BMP180;23057;48.554;14.454;2023-06-10T00:47:43;93527.00;;;21.30
41940;BMP180;23057;48.554;14.454;2023-06-10T00:50:14;93526.00;;;21.30
41940;BMP180;23057;48.554;14.454;2023-06-10T00:52:45;93536.00;;;21.20
41940;BMP180;23057;48.554;14.454;2023-06-10T00:55:19;93519.00;;;21.10
41940;BMP180;23057;48.554;14.454;2023-06-10T00:57:51;93524.00;;;21.10
41940;BMP180;23057;48.554;14.454;2023-06-10T01:00:22;93523.00;;;21.10
41940;BMP180;23057;48.554;14.454;2023-06-10T01:02:56;93512.00;;;21.10
41940;BMP180;23057;48.554;14.454;2023-06-10T01:05:27;93526.00;;;21.10
41940;BMP180;23057;48.554;14.454;2023-06-10T01:08:09;93525.00;;;21.00
41940;BMP180;23057;48.554;14.454;2023-06-10T01:10:57;93524.00;;;20.90
41940;BMP180;23057;48.554;14.454;2023-06-10T01:13:32;93522.00;;;20.90
41940;BMP180;23057;48.554;14.454;2023-06-10T01:16:06;93519.00;;;20.90
41940;BMP180;23057;48.554;14.454;2023-06-10T01:18:37;93511.00;;;20.90
41940;BMP180;23057;48.554;14.454;2023-06-10T01:21:19;93518.00;;;20.90
41940;BMP180;23057;48.554;14.454;2023-06-10T01:23:53;93519.00;;;20.90
41940;BMP180;23057;48.554;14.454;2023-06-10T01:26:30;93526.00;;;20.80
41940;BMP180;23057;48.554;14.454;2023-06-10T01:29:18;93516.00;;;20.80
41940;BMP180;23057;48.554;14.454;2023-06-10T01:32:04;93516.00;;;20.80
41940;BMP180;23057;48.554;14.454;2023-06-10T01:34:39;93519.00;;;20.80
41940;BMP180;23057;48.554;14.454;2023-06-10T01:37:16;93510.00;;;20.80
41940;BMP180;23057;48.554;14.454;2023-06-10T01:39:49;93508.00;;;20.70
41940;BMP180;23057;48.554;14.454;2023-06-10T01:42:20;93503.00;;;20.70
41940;BMP180;23057;48.554;14.454;2023-06-10T01:44:52;93494.00;;;20.70
41940;BMP180;23057;48.554;14.454;2023-06-10T01:47:23;93504.00;;;20.70
41940;BMP180;23057;48.554;14.454;2023-06-10T01:49:54;93508.00;;;20.70
41940;BMP180;23057;48.554;14.454;2023-06-10T01:52:25;93511.00;;;20.80
41940;BMP180;23057;48.554;14.454;2023-06-10T01:54:55;93506.00;;;20.80
41940;BMP180;23057;48.554;14.454;2023-06-10T01:57:26;93513.00;;;20.80
41940;BMP180;23057;48.554;14.454;2023-06-10T01:59:57;93508.00;;;20.80
41940;BMP180;23057;48.554;14.454;2023-06-10T02:02:28;93507.00;;;20.80
41940;BMP180;23057;48.554;14.454;2023-06-10T02:04:58;93510.00;;;20.80
41940;BMP180;23057;48.554;14.454;2023-06-10T02:07:29;93500.00;;;20.80
41940;BMP180;23057;48.554;14.454;2023-06-10T02:10:00;93508.00;;;20.90
41940;BMP180;23057;48.554;14.454;2023-06-10T02:12:30;93512.00;;;20.90
41940;BMP180;23057;48.554;14.454;2023-06-10T02:15:01;93514.00;;;20.90
41940;BMP180;23057;48.554;14.454;2023-06-10T02:17:33;93499.00;;;21.00
41940;BMP180;23057;48.554;14.454;2023-06-10T02:20:05;93509.00;;;21.00
41940;BMP180;23057;48.554;14.454;2023-06-10T02:22:37;93501.00;;;21.10
41940;BMP180;23057;48.554;14.454;2023-06-10T02:25:08;93509.00;;;21.10
41940;BMP180;23057;48.554;14.454;2023-06-10T02:27:39;93498.00;;;21.10
41940;BMP180;23057;48.554;14.454;2023-06-10T02:30:10;93502.00;;;21.10
41940;BMP180;23057;48.554;14.454;2023-06-10T02:32:41;93508.00;;;21.10
41940;BMP180;23057;48.554;14.454;2023-06-10T02:35:12;93509.00;;;21.10
41940;BMP180;23057;48.554;14.454;2023-06-10T02:37:43;93517.00;;;21.10
41940;BMP180;23057;48.554;14.454;2023-06-10T02:40:14;93508.00;;;21.20
41940;BMP180;23057;48.554;14.454;2023-06-10T02:42:45;93505.00;;;21.20
41940;BMP180;23057;48.554;14.454;2023-06-10T02:45:16;93513.00;;;21.30
41940;BMP180;23057;48.554;14.454;2023-06-10T02:47:49;93515.00;;;21.30
41940;BMP180;23057;48.554;14.454;2023-06-10T02:50:20;93511.00;;;21.30
41940;BMP180;23057;48.554;14.454;2023-06-10T02:52:51;93508.00;;;21.30
41940;BMP180;23057;48.554;14.454;2023-06-10T02:55:21;93522.00;;;21.30
41940;BMP180;23057;48.554;14.454;2023-06-10T02:57:52;93513.00;;;21.30
41940;BMP180;23057;48.554;14.454;2023-06-10T03:00:24;93524.00;;;21.30
41940;BMP180;23057;48.554;14.454;2023-06-10T03:02:55;93520.00;;;21.30
41940;BMP180;23057;48.554;14.454;2023-06-10T03:05:28;93518.00;;;21.20
41940;BMP180;23057;48.554;14.454;2023-06-10T03:07:59;93516.00;;;21.20
41940;BMP180;23057;48.554;14.454;2023-06-10T03:10:30;93514.00;;;21.20
41940;BMP180;23057;48.554;14.454;2023-06-10T03:13:03;93522.00;;;21.20
41940;BMP180;23057;48.554;14.454;2023-06-10T03:15:33;93517.00;;;21.10
41940;BMP180;23057;48.554;14.454;2023-06-10T03:18:06;93516.00;;;21.20
41940;BMP180;23057;48.554;14.454;2023-06-10T03:20:38;93509.00;;;21.20
41940;BMP180;23057;48.554;14.454;2023-06-10T03:23:10;93516.00;;;21.20
41940;BMP180;23057;48.554;14.454;2023-06-10T03:25:40;93521.00;;;21.20
41940;BMP180;23057;48.554;14.454;2023-06-10T03:28:11;93518.00;;;21.20
41940;BMP180;23057;48.554;14.454;2023-06-10T03:30:42;93522.00;;;21.20
41940;BMP180;23057;48.554;14.454;2023-06-10T03:33:12;93505.00;;;21.30
41940;BMP180;23057;48.554;14.454;2023-06-10T03:35:44;93510.00;;;21.30
41940;BMP180;23057;48.554;14.454;2023-06-10T03:38:15;93512.00;;;21.30
41940;BMP180;23057;48.554;14.454;2023-06-10T03:40:46;93532.00;;;21.30
41940;BMP180;23057;48.554;14.454;2023-06-10T03:43:16;93525.00;;;21.30
41940;BMP180;23057;48.554;14.454;2023-06-10T03:45:47;93525.00;;;21.30
41940;BMP180;23057;48.554;14.454;2023-06-10T03:48:18;93531.00;;;21.30
41940;BMP180;23057;48.554;14.454;2023-06-10T03:50:49;93524.00;;;21.40
41940;BMP180;23057;48.554;14.454;2023-06-10T03:53:21;93529.00;;;21.40
41940;BMP180;23057;48.554;14.454;2023-06-10T03:55:52;93527.00;;;21.40
41940;BMP180;23057;48.554;14.454;2023-06-10T03:58:22;93532.00;;;21.40
41940;BMP180;23057;48.554;14.454;2023-06-10T04:00:53;93535.00;;;21.50
41940;BMP180;23057;48.554;14.454;2023-06-10T04:03:25;93537.00;;;21.50
41940;BMP180;23057;48.554;14.454;2023-06-10T04:05:56;93539.00;;;21.50
41940;BMP180;23057;48.554;14.454;2023-06-10T04:08:27;93532.00;;;21.60
41940;BMP180;23057;48.554;14.454;2023-06-10T04:10:59;93531.00;;;21.60
41940;BMP180;23057;48.554;14.454;2023-06-10T04:13:29;93539.00;;;21.60
41940;BMP180;23057;48.554;14.454;2023-06-10T04:16:00;93529.00;;;21.70
41940;BMP180;23057;48.554;14.454;2023-06-10T04:18:31;93544.00;;;21.70
41940;BMP180;23057;48.554;14.454;2023-06-10T04:21:01;93537.00;;;21.80
41940;BMP180;23057;48.554;14.454;2023-06-10T04:23:32;93545.00;;;21.80
41940;BMP180;23057;48.554;14.454;2023-06-10T04:26:03;93540.00;;;21.90
41940;BMP180;23057;48.554;14.454;2023-06-10T04:28:36;93546.00;;;21.90
41940;BMP180;23057;48.554;14.454;2023-06-10T04:31:07;93537.00;;;21.90
41940;BMP180;23057;48.554;14.454;2023-06-10T04:33:37;93539.00;;;21.90
41940;BMP180;23057;48.554;14.454;2023-06-10T04:36:08;93540.00;;;21.90
41940;BMP180;23057;48.554;14.454;2023-06-10T04:38:39;93533.00;;;21.90
41940;BMP180;23057;48.554;14.454;2023-06-10T04:41:11;93542.00;;;21.90
41940;BMP180;23057;48.554;14.454;2023-06-10T04:43:41;93533.00;;;21.90
41940;BMP180;23057;48.554;14.454;2023-06-10T04:46:12;93535.00;;;21.90
41940;BMP180;23057;48.554;14.454;2023-06-10T04:48:44;93543.00;;;21.90
41940;BMP180;23057;48.554;14.454;2023-06-10T04:51:15;93541.00;;;22.00
41940;BMP180;23057;48.554;14.454;2023-06-10T04:53:46;93540.00;;;22.00
41940;BMP180;23057;48.554;14.454;2023-06-10T04:56:17;93541.00;;;22.00
41940;BMP180;23057;48.554;14.454;2023-06-10T04:58:48;93554.00;;;22.10
41940;BMP180;23057;48.554;14.454;2023-06-10T05:01:19;93548.00;;;22.10
41940;BMP180;23057;48.554;14.454;2023-06-10T05:03:50;93555.00;;;22.10
41940;BMP180;23057;48.554;14.454;2023-06-10T05:06:20;93549.00;;;22.10
41940;BMP180;23057;48.554;14.454;2023-06-10T05:08:51;93558.00;;;22.20
41940;BMP180;23057;48.554;14.454;2023-06-10T05:11:22;93554.00;;;22.20
41940;BMP180;23057;48.554;14.454;2023-06-10T05:13:53;93554.00;;;22.20
41940;BMP180;23057;48.554;14.454;2023-06-10T05:16:23;93559.00;;;22.30
41940;BMP180;23057;48.554;14.454;2023-06-10T05:18:54;93556.00;;;22.40
41940;BMP180;23057;48.554;14.454;2023-06-10T05:21:25;93556.00;;;22.40
41940;BMP180;23057;48.554;14.454;2023-06-10T05:23:56;93552.00;;;22.40
41940;BMP180;23057;48.554;14.454;2023-06-10T05:26:26;93555.00;;;22.30
41940;BMP180;23057;48.554;14.454;2023-06-10T05:28:59;93554.00;;;22.40
41940;BMP180;23057;48.554;14.454;2023-06-10T05:31:30;93554.00;;;22.40
41940;BMP180;23057;48.554;14.454;2023-06-10T05:34:00;93545.00;;;22.40
41940;BMP180;23057;48.554;14.454;2023-06-10T05:36:31;93548.00;;;22.50
41940;BMP180;23057;48.554;14.454;2023-06-10T05:39:03;93550.00;;;22.50
41940;BMP180;23057;48.554;14.454;2023-06-10T05:41:33;93551.00;;;22.60
41940;BMP180;23057;48.554;14.454;2023-06-10T05:44:04;93556.00;;;22.70
41940;BMP180;23057;48.554;14.454;2023-06-10T05:46:35;93563.00;;;22.70
41940;BMP180;23057;48.554;14.454;2023-06-10T05:49:06;93562.00;;;22.80
41940;BMP180;23057;48.554;14.454;2023-06-10T05:51:36;93568.00;;;22.80
41940;BMP180;23057;48.554;14.454;2023-06-10T05:54:07;93553.00;;;22.90
41940;BMP180;23057;48.554;14.454;2023-06-10T05:56:38;93559.00;;;22.90
41940;BMP180;23057;48.554;14.454;2023-06-10T05:59:09;93562.00;;;22.90
41940;BMP180;23057;48.554;14.454;2023-06-10T06:01:40;93561.00;;;22.90
41940;BMP180;23057;48.554;14.454;2023-06-10T06:04:10;93566.00;;;23.00
41940;BMP180;23057;48.554;14.454;2023-06-10T06:06:41;93557.00;;;23.10
41940;BMP180;23057;48.554;14.454;2023-06-10T06:09:12;93563.00;;;23.20
41940;BMP180;23057;48.554;14.454;2023-06-10T06:11:43;93561.00;;;23.20
41940;BMP180;23057;48.554;14.454;2023-06-10T06:14:14;93561.00;;;23.30
41940;BMP180;23057;48.554;14.454;2023-06-10T06:16:44;93565.00;;;23.40
41940;BMP180;23057;48.554;14.454;2023-06-10T06:19:15;93568.00;;;23.50
41940;BMP180;23057;48.554;14.454;2023-06-10T06:21:46;93558.00;;;23.50
41940;BMP180;23057;48.554;14.454;2023-06-10T06:24:16;93559.00;;;23.50
41940;BMP180;23057;48.554;14.454;2023-06-10T06:26:47;93557.00;;;23.60
41940;BMP180;23057;48.554;14.454;2023-06-10T06:29:18;93567.00;;;23.60
41940;BMP180;23057;48.554;14.454;2023-06-10T06:31:49;93561.00;;;23.60
41940;BMP180;23057;48.554;14.454;2023-06-10T06:34:19;93561.00;;;23.60
41940;BMP180;23057;48.554;14.454;2023-06-10T06:36:50;93558.00;;;23.60
41940;BMP180;23057;48.554;14.454;2023-06-10T06:39:21;93567.00;;;23.60
41940;BMP180;23057;48.554;14.454;2023-06-10T06:41:52;93563.00;;;23.70
41940;BMP180;23057;48.554;14.454;2023-06-10T06:44:23;93568.00;;;23.70
41940;BMP180;23057;48.554;14.454;2023-06-10T06:46:54;93569.00;;;23.80
41940;BMP180;23057;48.554;14.454;2023-06-10T06:49:25;93568.00;;;23.80
41940;BMP180;23057;48.554;14.454;2023-06-10T06:51:55;93574.00;;;23.80
41940;BMP180;23057;48.554;14.454;2023-06-10T06:54:26;93576.00;;;23.80
41940;BMP180;23057;48.554;14.454;2023-06-10T06:56:57;93570.00;;;23.80
41940;BMP180;23057;48.554;14.454;2023-06-10T06:59:27;93574.00;;;23.80
41940;BMP180;23057;48.554;14.454;2023-06-10T07:01:58;93581.00;;;23.80
41940;BMP180;23057;48.554;14.454;2023-06-10T07:04:29;93577.00;;;23.80
41940;BMP180;23057;48.554;14.454;2023-06-10T07:07:00;93582.00;;;24.00
41940;BMP180;23057;48.554;14.454;2023-06-10T07:09:31;93577.00;;;24.30
41940;BMP180;23057;48.554;14.454;2023-06-10T07:12:02;93585.00;;;24.50
41940;BMP180;23057;48.554;14.454;2023-06-10T07:14:33;93581.00;;;24.60
41940;BMP180;23057;48.554;14.454;2023-06-10T07:17:04;93583.00;;;24.70
41940;BMP180;23057;48.554;14.454;2023-06-10T07:19:35;93588.00;;;24.70
41940;BMP180;23057;48.554;14.454;2023-06-10T07:22:06;93582.00;;;24.50
41940;BMP180;23057;48.554;14.454;2023-06-10T07:24:36;93586.00;;;24.40
41940;BMP180;23057;48.554;14.454;2023-06-10T07:27:07;93590.00;;;24.30
41940;BMP180;23057;48.554;14.454;2023-06-10T07:29:39;93598.00;;;24.30
41940;BMP180;23057;48.554;14.454;2023-06-10T07:32:10;93591.00;;;24.20
41940;BMP180;23057;48.554;14.454;2023-06-10T07:34:41;93588.00;;;24.20
41940;BMP180;23057;48.554;14.454;2023-06-10T07:37:12;93590.00;;;24.20
41940;BMP180;23057;48.554;14.454;2023-06-10T07:39:42;93588.00;;;24.20
41940;BMP180;23057;48.554;14.454;2023-06-10T07:42:13;93591.00;;;24.20
41940;BMP180;23057;48.554;14.454;2023-06-10T07:44:44;93593.00;;;24.30
41940;BMP180;23057;48.554;14.454;2023-06-10T07:47:15;93594.00;;;24.40
41940;BMP180;23057;48.554;14.454;2023-06-10T07:49:46;93595.00;;;24.50
41940;BMP180;23057;48.554;14.454;2023-06-10T07:52:16;93596.00;;;24.50
41940;BMP180;23057;48.554;14.454;2023-06-10T07:54:47;93592.00;;;24.60
41940;BMP180;23057;48.554;14.454;2023-06-10T07:57:19;93592.00;;;24.60
41940;BMP180;23057;48.554;14.454;2023-06-10T07:59:49;93600.00;;;24.60
41940;BMP180;23057;48.554;14.454;2023-06-10T08:02:20;93595.00;;;24.60
41940;BMP180;23057;48.554;14.454;2023-06-10T08:04:51;93593.00;;;24.60
41940;BMP180;23057;48.554;14.454;2023-06-10T08:07:21;93595.00;;;24.70
41940;BMP180;23057;48.554;14.454;2023-06-10T08:09:52;93596.00;;;24.80
41940;BMP180;23057;48.554;14.454;2023-06-10T08:12:25;93603.00;;;24.90
41940;BMP180;23057;48.554;14.454;2023-06-10T08:14:55;93607.00;;;25.00
41940;BMP180;23057;48.554;14.454;2023-06-10T08:17:26;93610.00;;;25.00
41940;BMP180;23057;48.554;14.454;2023-06-10T08:19:57;93614.00;;;25.10
41940;BMP180;23057;48.554;14.454;2023-06-10T08:22:28;93613.00;;;25.20
41940;BMP180;23057;48.554;14.454;2023-06-10T08:24:59;93608.00;;;25.30
41940;BMP180;23057;48.554;14.454;2023-06-10T08:27:30;93607.00;;;25.40
41940;BMP180;23057;48.554;14.454;2023-06-10T08:30:01;93613.00;;;25.60
41940;BMP180;23057;48.554;14.454;2023-06-10T08:32:32;93615.00;;;25.70
41940;BMP180;23057;48.554;14.454;2023-06-10T08:35:03;93617.00;;;25.80
41940;BMP180;23057;48.554;14.454;2023-06-10T08:37:34;93623.00;;;25.90
41940;BMP180;23057;48.554;14.454;2023-06-10T08:40:05;93623.00;;;26.00
41940;BMP180;23057;48.554;14.454;2023-06-10T08:42:43;93616.00;;;26.00
41940;BMP180;23057;48.554;14.454;2023-06-10T08:45:20;93613.00;;;26.20
41940;BMP180;23057;48.554;14.454;2023-06-10T08:47:56;93615.00;;;26.40
41940;BMP180;23057;48.554;14.454;2023-06-10T08:50:28;93620.00;;;26.50
41940;BMP180;23057;48.554;14.454;2023-06-10T08:53:00;93621.00;;;26.50
41940;BMP180;23057;48.554;14.454;2023-06-10T08:55:38;93626.00;;;26.40
41940;BMP180;23057;48.554;14.454;2023-06-10T08:58:13;93626.00;;;26.30
41940;BMP180;23057;48.554;14.454;2023-06-10T09:00:44;93631.00;;;26.30
41940;BMP180;23057;48.554;14.454;2023-06-10T09:03:16;93624.00;;;26.40
41940;BMP180;23057;48.554;14.454;2023-06-10T09:05:48;93617.00;;;26.40
41940;BMP180;23057;48.554;14.454;2023-06-10T09:08:19;93627.00;;;26.40
41940;BMP180;23057;48.554;14.454;2023-06-10T09:10:50;93625.00;;;26.40
41940;BMP180;23057;48.554;14.454;2023-06-10T09:13:21;93622.00;;;26.40
41940;BMP180;23057;48.554;14.454;2023-06-10T09:15:52;93628.00;;;26.40
41940;BMP180;23057;48.554;14.454;2023-06-10T09:18:23;93626.00;;;26.40
41940;BMP180;23057;48.554;14.454;2023-06-10T09:20:54;93623.00;;;26.40
41940;BMP180;23057;48.554;14.454;2023-06-10T09:23:25;93624.00;;;26.30
41940;BMP180;23057;48.554;14.454;2023-06-10T09:25:57;93624.00;;;26.20
41940;BMP180;23057;48.554;14.454;2023-06-10T09:28:28;93623.00;;;26.20
41940;BMP180;23057;48.554;14.454;2023-06-10T09:31:06;93631.00;;;26.10
41940;BMP180;23057;48.554;14.454;2023-06-10T09:33:40;93632.00;;;26.20
41940;BMP180;23057;48.554;14.454;2023-06-10T09:36:11;93636.00;;;26.20
41940;BMP180;23057;48.554;14.454;2023-06-10T09:38:42;93629.00;;;26.20
41940;BMP180;23057;48.554;14.454;2023-06-10T09:41:13;93639.00;;;26.20
41940;BMP180;23057;48.554;14.454;2023-06-10T09:43:46;93629.00;;;26.10
41940;BMP180;23057;48.554;14.454;2023-06-10T09:46:18;93624.00;;;26.20
41940;BMP180;23057;48.554;14.454;2023-06-10T09:48:50;93636.00;;;26.10
41940;BMP180;23057;48.554;14.454;2023-06-10T09:51:21;93632.00;;;26.00
41940;BMP180;23057;48.554;14.454;2023-06-10T09:53:54;93639.00;;;26.00
41940;BMP180;23057;48.554;14.454;2023-06-10T09:56:33;93639.00;;;26.00
41940;BMP180;23057;48.554;14.454;2023-06-10T09:59:07;93624.00;;;25.90
41940;BMP180;23057;48.554;14.454;2023-06-10T10:01:38;93630.00;;;25.90
41940;BMP180;23057;48.554;14.454;2023-06-10T10:04:08;93625.00;;;26.00
41940;BMP180;23057;48.554;14.454;2023-06-10T10:06:40;93619.00;;;26.10
41940;BMP180;23057;48.554;14.454;2023-06-10T10:09:10;93619.00;;;26.20
41940;BMP180;23057;48.554;14.454;2023-06-10T10:11:41;93629.00;;;26.30
41940;BMP180;23057;48.554;14.454;2023-06-10T10:14:16;93621.00;;;26.40
41940;BMP180;23057;48.554;14.454;2023-06-10T10:16:49;93618.00;;;26.40
41940;BMP180;23057;48.554;14.454;2023-06-10T10:19:31;93626.00;;;26.60
41940;BMP180;23057;48.554;14.454;2023-06-10T10:22:08;93625.00;;;26.80
41940;BMP180;23057;48.554;14.454;2023-06-10T10:24:55;93620.00;;;27.10
41940;BMP180;23057;48.554;14.454;2023-06-10T10:27:31;93629.00;;;27.40
41940;BMP180;23057;48.554;14.454;2023-06-10T10:30:06;93622.00;;;27.60
41940;BMP180;23057;48.554;14.454;2023-06-10T10:35:26;93624.00;;;27.80
41940;BMP180;23057;48.554;14.454;2023-06-10T10:37:58;93620.00;;;27.70
41940;BMP180;23057;48.554;14.454;2023-06-10T10:40:30;93615.00;;;27.50
41940;BMP180;23057;48.554;14.454;2023-06-10T10:43:04;93613.00;;;27.60
41940;BMP180;23057;48.554;14.454;2023-06-10T10:45:36;93612.00;;;27.50
41940;BMP180;23057;48.554;14.454;2023-06-10T10:48:10;93606.00;;;27.50
41940;BMP180;23057;48.554;14.454;2023-06-10T10:50:42;93616.00;;;27.40
41940;BMP180;23057;48.554;14.454;2023-06-10T10:53:19;93608.00;;;27.30
41940;BMP180;23057;48.554;14.454;2023-06-10T10:56:08;93602.00;;;27.40
41940;BMP180;23057;48.554;14.454;2023-06-10T10:59:02;93601.00;;;27.30
41940;BMP180;23057;48.554;14.454;2023-06-10T11:01:43;93602.00;;;27.30
41940;BMP180;23057;48.554;14.454;2023-06-10T11:04:18;93601.00;;;27.30
41940;BMP180;23057;48.554;14.454;2023-06-10T11:06:52;93600.00;;;27.20
41940;BMP180;23057;48.554;14.454;2023-06-10T11:09:25;93609.00;;;27.20
41940;BMP180;23057;48.554;14.454;2023-06-10T11:12:00;93603.00;;;27.00
41940;BMP180;23057;48.554;14.454;2023-06-10T11:14:31;93602.00;;;26.90
41940;BMP180;23057;48.554;14.454;2023-06-10T11:17:18;93606.00;;;26.80
41940;BMP180;23057;48.554;14.454;2023-06-10T11:19:50;93605.00;;;26.80
41940;BMP180;23057;48.554;14.454;2023-06-10T11:22:20;93611.00;;;26.70
41940;BMP180;23057;48.554;14.454;2023-06-10T11:24:51;93608.00;;;26.70
41940;BMP180;23057;48.554;14.454;2023-06-10T11:27:23;93610.00;;;26.60
41940;BMP180;23057;48.554;14.454;2023-06-10T11:32:34;93612.00;;;26.70
41940;BMP180;23057;48.554;14.454;2023-06-10T11:35:07;93602.00;;;26.80
41940;BMP180;23057;48.554;14.454;2023-06-10T11:37:38;93614.00;;;26.80
41940;BMP180;23057;48.554;14.454;2023-06-10T11:40:09;93612.00;;;26.70
41940;BMP180;23057;48.554;14.454;2023-06-10T11:42:42;93608.00;;;26.80
41940;BMP180;23057;48.554;14.454;2023-06-10T11:45:19;93608.00;;;26.80
41940;BMP180;23057;48.554;14.454;2023-06-10T11:47:59;93612.00;;;26.80
41940;BMP180;23057;48.554;14.454;2023-06-10T11:50:32;93613.00;;;26.80
41940;BMP180;23057;48.554;14.454;2023-06-10T11:53:03;93614.00;;;26.80
41940;BMP180;23057;48.554;14.454;2023-06-10T11:55:45;93625.00;;;26.70
41940;BMP180;23057;48.554;14.454;2023-06-10T11:58:19;93610.00;;;26.60
41940;BMP180;23057;48.554;14.454;2023-06-10T12:00:55;93622.00;;;26.50
41940;BMP180;23057;48.554;14.454;2023-06-10T12:03:38;93613.00;;;26.40
41940;BMP180;23057;48.554;14.454;2023-06-10T12:06:08;93615.00;;;26.40
41940;BMP180;23057;48.554;14.454;2023-06-10T12:08:43;93609.00;;;26.40
41940;BMP180;23057;48.554;14.454;2023-06-10T12:11:14;93611.00;;;26.20
41940;BMP180;23057;48.554;14.454;2023-06-10T12:13:46;93615.00;;;26.00
41940;BMP180;23057;48.554;14.454;2023-06-10T12:16:21;93616.00;;;25.70
41940;BMP180;23057;48.554;14.454;2023-06-10T12:19:01;93615.00;;;25.60
41940;BMP180;23057;48.554;14.454;2023-06-10T12:21:34;93607.00;;;25.40
41940;BMP180;23057;48.554;14.454;2023-06-10T12:24:09;93621.00;;;25.20
41940;BMP180;23057;48.554;14.454;2023-06-10T12:26:43;93611.00;;;25.00
41940;BMP180;23057;48.554;14.454;2023-06-10T12:29:19;93618.00;;;24.90
41940;BMP180;23057;48.554;14.454;2023-06-10T12:31:59;93612.00;;;24.70
41940;BMP180;23057;48.554;14.454;2023-06-10T12:37:10;93616.00;;;24.50
41940;BMP180;23057;48.554;14.454;2023-06-10T12:39:51;93625.00;;;24.40
41940;BMP180;23057;48.554;14.454;2023-06-10T12:42:26;93617.00;;;24.40
41940;BMP180;23057;48.554;14.454;2023-06-10T12:44:57;93620.00;;;24.40
41940;BMP180;23057;48.554;14.454;2023-06-10T12:47:33;93616.00;;;24.30
41940;BMP180;23057;48.554;14.454;2023-06-10T12:50:15;93609.00;;;24.30
41940;BMP180;23057;48.554;14.454;2023-06-10T12:52:45;93601.00;;;24.40
41940;BMP180;23057;48.554;14.454;2023-06-10T12:55:16;93593.00;;;24.40
41940;BMP180;23057;48.554;14.454;2023-06-10T12:57:48;93592.00;;;24.40
41940;BMP180;23057;48.554;14.454;2023-06-10T13:00:20;93588.00;;;24.50
41940;BMP180;23057;48.554;14.454;2023-06-10T13:02:52;93588.00;;;24.60
41940;BMP180;23057;48.554;14.454;2023-06-10T13:05:25;93583.00;;;24.60
41940;BMP180;23057;48.554;14.454;2023-06-10T13:07:57;93594.00;;;24.60
41940;BMP180;23057;48.554;14.454;2023-06-10T13:10:27;93590.00;;;24.70
41940;BMP180;23057;48.554;14.454;2023-06-10T13:13:00;93590.00;;;24.70
41940;BMP180;23057;48.554;14.454;2023-06-10T13:15:32;93591.00;;;24.80
41940;BMP180;23057;48.554;14.454;2023-06-10T13:18:06;93597.00;;;24.90
41940;BMP180;23057;48.554;14.454;2023-06-10T13:20:37;93608.00;;;25.10
41940;BMP180;23057;48.554;14.454;2023-06-10T13:23:07;93612.00;;;25.10
41940;BMP180;23057;48.554;14.454;2023-06-10T13:25:38;93614.00;;;25.20
41940;BMP180;23057;48.554;14.454;2023-06-10T13:28:10;93611.00;;;25.20
41940;BMP180;23057;48.554;14.454;2023-06-10T13:30:42;93632.00;;;25.20
41940;BMP180;23057;48.554;14.454;2023-06-10T13:33:12;93626.00;;;25.20
41940;BMP180;23057;48.554;14.454;2023-06-10T13:35:43;93634.00;;;25.20
41940;BMP180;23057;48.554;14.454;2023-06-10T13:38:14;93626.00;;;25.30
41940;BMP180;23057;48.554;14.454;2023-06-10T13:40:45;93619.00;;;25.40
41940;BMP180;23057;48.554;14.454;2023-06-10T13:43:16;93622.00;;;25.50
41940;BMP180;23057;48.554;14.454;2023-06-10T13:45:47;93621.00;;;25.60
41940;BMP180;23057;48.554;14.454;2023-06-10T13:48:18;93619.00;;;25.60
41940;BMP180;23057;48.554;14.454;2023-06-10T13:50:50;93619.00;;;25.70
41940;BMP180;23057;48.554;14.454;2023-06-10T13:53:21;93617.00;;;25.70
41940;BMP180;23057;48.554;14.454;2023-06-10T13:55:51;93615.00;;;25.70
41940;BMP180;23057;48.554;14.454;2023-06-10T13:58:22;93612.00;;;25.80
41940;BMP180;23057;48.554;14.454;2023-06-10T14:00:53;93610.00;;;25.70
41940;BMP180;23057;48.554;14.454;2023-06-10T14:03:24;93609.00;;;25.70
41940;BMP180;23057;48.554;14.454;2023-06-10T14:05:55;93618.00;;;25.80
41940;BMP180;23057;48.554;14.454;2023-06-10T14:08:25;93617.00;;;25.90
41940;BMP180;23057;48.554;14.454;2023-06-10T14:10:56;93607.00;;;25.90
41940;BMP180;23057;48.554;14.454;2023-06-10T14:13:27;93608.00;;;25.90
41940;BMP180;23057;48.554;14.454;2023-06-10T14:15:58;93613.00;;;25.90
41940;BMP180;23057;48.554;14.454;2023-06-10T14:18:33;93617.00;;;25.90
41940;BMP180;23057;48.554;14.454;2023-06-10T14:21:03;93616.00;;;25.80
41940;BMP180;23057;48.554;14.454;2023-06-10T14:23:34;93619.00;;;25.60
41940;BMP180;23057;48.554;14.454;2023-06-10T14:26:05;93624.00;;;25.40
41940;BMP180;23057;48.554;14.454;2023-06-10T14:28:37;93618.00;;;25.20
41940;BMP180;23057;48.554;14.454;2023-06-10T14:31:08;93630.00;;;25.10
41940;BMP180;23057;48.554;14.454;2023-06-10T14:33:39;93625.00;;;25.00